Details From EDFH - Frankfurt Hahn
To EDTL - LAHR
Flight Number -
Tags generated
Created
Modified
Stats Distance 98 nm / 181 km
Max Altitude 11,500 ft / 3,505 m
Waypoints 3
Social Downloads 5
Likes 0
Share VATSIM

Download

Looking for another format? Having issues loading an existing format? Contact us
Advertisement - Login to hide

Notes

Basic altitude profile: - Ascent Rate: 1500ft/min - Ascent Speed: 200kts - Cruise Altitude: 15000ft - Cruise Speed: 260kts - Descent Rate: 2000ft/min - Descent Speed: 290kts Options: - Use NATs: yes - Use PACOTS: yes - Use low airways: yes - Use high airways: yes

Route

EDFH ZWN EDTL

ID Type Via Altitude Latitude Longitude Leg Dist Tot Dist Heading (true) Name
O EDFH APT - 0 ft / 0 m 49.94581˚ 7.26108˚ - 0 nm - Frankfurt Hahn
ZWN VOR - 11,500 ft / 3,505 m 49.22907˚ 7.41789˚ 43 nm 43 nm 172° / 172° ZWEIBRUCKEN VOR-DME
O EDTL APT - 0 ft / 0 m 48.36925˚ 7.82772˚ 54 nm 97 nm 162° / 163° LAHR

Altitude Profile

Advertisement - Login to hide

EDFH

Details ICAO EDFH (HHN)
Name Frankfurt Hahn
Region Germany - Civil
Timezone Europe/Berlin (UTC+1.0)
Stats Elevation 1,649 ft / 503 m (AMSL)
Location 49.945808° 7.261082°
Runways 1
Magnetic Variation 1.981° E

METAR

EDFH 111920Z 19021KT 9999 SCT030 06/04 Q0979

Decode

TAF

TAF EDFH 111700Z 1118/1218 20015G30KT 9999 BKN030 PROB30 TEMPO 1118/1124 4000 SHRASN SCT020TCU BECMG 1200/1203 27015G30KT BKN012 PROB30 TEMPO 1200/1215 2000 SHSN BKN015TCU BECMG 1209/1212 27010KT SCT035

Decode

Departure Runways

ID Width Length Bearing (true) Bearing (mag) Surface Threshold Offset Overrun Length
03 148 ft / 45 m 12,457 ft / 3,797 m 32.37° 30.39° Asphalt 3,461 ft / 1,055 m 0 ft / 0 m
21 148 ft / 45 m 12,457 ft / 3,797 m 212.39° 210.41° Asphalt 984 ft / 300 m 0 ft / 0 m

EDTL

Details ICAO EDTL (LHA)
Name LAHR
Region Germany - Civil
Timezone Europe/Berlin (UTC+1.0)
Stats Elevation 511 ft / 156 m (AMSL)
Location 48.369251° 7.827725°
Runways 1
Magnetic Variation 2.157° E

METAR

EDTL 111850Z 19020KT CAVOK 08/04 Q0986

Decode

TAF

Not found

Destination Runways

ID Width Length Bearing (true) Bearing (mag) Surface Threshold Offset Overrun Length
03 148 ft / 45 m 9,837 ft / 2,998 m 28.21° 26.05° Asphalt 0 ft / 0 m 837 ft / 255 m
21 148 ft / 45 m 9,837 ft / 2,998 m 208.23° 206.07° Asphalt 0 ft / 0 m 886 ft / 270 m

Approach Navaids

Runway Type Ident Frequency Range Bearing (true) Bearing (mag) Slope Elevation
21 Localiser ILRW 109.70 MHz 18 nm / 33 km 208.21° 206.05° - 511 ft / 156 m (AMSL)
21 Glidescope ILRW 109.70 MHz 10 nm / 19 km 208.22° 206.06° 3.00° 511 ft / 156 m (AMSL)
21 DME ILRW 108.05 MHz 18 nm / 33 km - - - 556 ft / 169 m (AMSL)